Anson, Texas
Current Conditions -  °F | °C
As of 1:58 AM on Saturday 01 Nov 2014 (Local Time) from KDYS Reporting Station
Clear Clear  
Wind Chill: 45°   Ceiling: Unl
Heat Index: 45°   Visibility: 7mi
Dew Point: 33°   Wind: 3mph
Humidity: 62%   Direction: 230°SW
Pressure: 30.34"   Gusts: NA
Location:  32.76°N, 99.9°W
Report Text: KDYS 010658Z AUTO 23003KT 7SM CLR 07/01 A3034 RMK AO2 SLP258 T00740005 $
Loading
Personal Weather Stations






























Interactive Weather Map
Tropical Storm Tracking
New forecast layout! Learn more

10-Day Weather Forecast

Advertisements
Track Severe Weather on mobile